createdAt,value
2018-04-02T03:42:41.136Z,26.67
2018-04-02T03:45:08.764Z,28.12
2018-04-02T03:47:37.193Z,26.60
2018-04-02T03:50:04.858Z,27.90
2018-04-02T03:52:32.541Z,27.35
2018-04-02T03:55:00.184Z,27.20
2018-04-02T03:57:27.821Z,27.13
2018-04-02T03:59:55.501Z,27.25
2018-04-02T04:02:23.217Z,28.38
2018-04-02T04:04:51.615Z,27.13
2018-04-02T04:07:19.277Z,27.25
2018-04-02T04:09:46.980Z,25.90
2018-04-02T04:12:14.649Z,24.40
2018-04-02T04:14:42.290Z,24.05
2018-04-02T04:17:09.942Z,27.50
2018-04-02T04:19:37.607Z,26.35
2018-04-02T04:22:05.247Z,26.55
2018-04-02T04:24:32.882Z,24.87
2018-04-02T04:27:01.335Z,24.77
2018-04-02T04:29:28.968Z,24.20
2018-04-02T04:31:56.609Z,22.77
2018-04-02T04:34:24.271Z,23.12
2018-04-02T04:36:51.907Z,24.90
2018-04-02T04:39:19.540Z,24.33
2018-04-02T04:41:47.221Z,24.55
2018-04-02T04:44:14.860Z,21.30
2018-04-02T04:46:42.496Z,22.98
2018-04-02T04:49:10.173Z,21.85
2018-04-02T04:51:37.848Z,22.45
2018-04-02T04:54:06.249Z,24.42
2018-04-02T04:56:33.924Z,22.80
2018-04-02T04:59:01.564Z,24.27
2018-04-02T05:01:29.964Z,25.85
2018-04-02T05:03:57.637Z,23.62
2018-04-02T05:06:25.281Z,27.48
2018-04-02T05:08:52.916Z,23.25
2018-04-02T05:11:21.365Z,20.40
2018-04-02T05:13:48.996Z,21.85
2018-04-02T05:16:16.625Z,20.83
2018-04-02T05:18:44.317Z,22.25
2018-04-02T05:21:11.949Z,22.75
2018-04-02T05:23:39.580Z,21.17
2018-04-02T05:26:08.046Z,22.02
2018-04-02T05:28:35.681Z,22.33
2018-04-02T05:31:03.317Z,22.02
2018-04-02T05:33:31.085Z,24.10
2018-04-02T05:35:58.725Z,23.12
2018-04-02T05:38:26.381Z,26.52
2018-04-02T05:40:54.820Z,22.50
2018-04-02T05:43:22.457Z,23.67
2018-04-02T05:45:50.089Z,24.40
2018-04-02T05:48:17.773Z,22.73
2018-04-02T05:50:45.408Z,25.20
2018-04-02T05:53:13.037Z,24.33
2018-04-02T05:55:40.696Z,24.60
2018-04-02T05:58:08.333Z,23.62
2018-04-02T06:00:35.963Z,24.27
2018-04-02T06:03:03.621Z,25.10
2018-04-02T06:05:31.260Z,21.15
2018-04-02T06:07:59.660Z,22.17
2018-04-02T06:10:27.336Z,22.45
2018-04-02T06:12:54.968Z,22.35
2018-04-02T06:15:22.601Z,21.77
2018-04-02T06:17:51.050Z,22.48
2018-04-02T06:20:18.686Z,21.52
2018-04-02T06:22:46.328Z,22.50
2018-04-02T06:25:14.000Z,21.58
2018-04-02T06:27:41.633Z,22.27
2018-04-02T06:30:10.037Z,21.40
2018-04-02T06:32:37.745Z,24.08
2018-04-02T06:35:05.389Z,21.92
2018-04-02T06:37:33.032Z,22.15
2018-04-02T06:40:00.705Z,31.90
2018-04-02T06:42:28.339Z,27.65
2018-04-02T06:44:55.983Z,25.45
2018-04-02T06:47:23.660Z,25.90
2018-04-02T06:49:51.293Z,28.73
2018-04-02T06:52:19.703Z,22.55
2018-04-02T06:54:47.377Z,23.27
2018-04-02T06:57:15.009Z,25.42
2018-04-02T06:59:42.641Z,24.45
2018-04-02T07:02:10.316Z,23.80
2018-04-02T07:04:38.851Z,26.05
2018-04-02T07:07:06.536Z,22.80
2018-04-02T07:09:34.314Z,27.77
2018-04-02T07:12:02.858Z,22.45
2018-04-02T07:14:30.491Z,22.42
2018-04-02T07:16:58.145Z,21.73
2018-04-02T07:19:26.751Z,22.73
2018-04-02T07:21:54.708Z,22.02
2018-04-02T07:24:22.350Z,18.33
2018-04-02T07:26:50.018Z,17.77
2018-04-02T07:29:17.653Z,17.90
2018-04-02T07:31:46.062Z,18.48
2018-04-02T07:34:13.748Z,18.23
2018-04-02T07:36:41.386Z,18.45
2018-04-02T07:39:09.019Z,17.87
2018-04-02T07:41:37.751Z,18.77
2018-04-02T07:44:05.392Z,17.90
2018-04-02T07:46:33.029Z,20.62
2018-04-02T07:49:00.712Z,19.12
2018-04-02T07:51:28.406Z,18.50
2018-04-02T07:53:56.135Z,19.15
2018-04-02T07:56:23.810Z,18.42
2018-04-02T07:58:51.460Z,18.30
2018-04-02T08:01:19.140Z,18.67
2018-04-02T08:03:46.813Z,18.37
2018-04-02T08:06:14.454Z,18.00
2018-04-02T08:08:42.161Z,17.55
2018-04-02T08:11:09.787Z,18.25
2018-04-02T08:13:37.687Z,18.95
2018-04-02T08:16:05.425Z,18.77
2018-04-02T08:18:33.069Z,18.65
2018-04-02T08:21:01.170Z,19.65
2018-04-02T08:23:28.864Z,17.62
2018-04-02T08:25:56.504Z,15.40
2018-04-02T08:28:24.913Z,14.45
2018-04-02T08:30:52.586Z,15.05
2018-04-02T08:33:20.217Z,15.95
2018-04-02T08:35:47.852Z,17.45
2018-04-02T08:38:15.513Z,20.67
2018-04-02T08:40:43.918Z,20.65
2018-04-02T08:43:11.568Z,23.55
2018-04-02T08:45:39.267Z,25.58
2018-04-02T08:48:06.904Z,25.45
2018-04-02T08:50:34.536Z,25.35
2018-04-02T08:53:02.981Z,24.02
2018-04-02T08:55:30.620Z,25.50
2018-04-02T08:57:58.252Z,23.12
2018-04-02T09:00:26.696Z,20.95
2018-04-02T09:02:54.331Z,21.00
2018-04-02T09:05:21.977Z,22.23
2018-04-02T09:07:49.652Z,20.40
2018-04-02T09:10:17.290Z,19.55
2018-04-02T09:12:44.921Z,20.90
2018-04-02T09:15:13.365Z,18.42
2018-04-02T09:17:41.001Z,21.42
2018-04-02T09:20:08.637Z,20.33
2018-04-02T09:22:36.289Z,20.15
2018-04-02T09:25:04.688Z,19.90
2018-04-02T09:27:32.373Z,20.05
2018-04-02T09:30:00.017Z,19.50
2018-04-02T09:32:27.648Z,20.17
2018-04-02T09:34:55.332Z,20.50
2018-04-02T09:37:22.964Z,21.10
2018-04-02T09:39:51.365Z,22.20
2018-04-02T09:42:19.036Z,21.02
2018-04-02T09:44:46.682Z,19.90
2018-04-02T09:47:14.313Z,20.85
2018-04-02T09:49:42.732Z,19.87
2018-04-02T09:52:10.369Z,19.80
2018-04-02T09:54:38.049Z,19.98
2018-04-02T09:57:05.717Z,20.00
2018-04-02T09:59:33.348Z,21.30
2018-04-02T10:02:07.513Z,19.70
2018-04-02T10:04:36.036Z,17.65
2018-04-02T10:07:03.612Z,16.50
2018-04-02T10:09:31.302Z,14.20
2018-04-02T10:11:58.948Z,15.80
2018-04-02T10:14:26.596Z,16.23
2018-04-02T10:16:54.281Z,18.62
2018-04-02T10:19:21.916Z,15.20
2018-04-02T10:21:49.553Z,13.80
2018-04-02T10:24:17.986Z,13.75
2018-04-02T10:26:45.616Z,12.27
2018-04-02T10:29:13.303Z,11.57
2018-04-02T10:31:40.952Z,10.45
2018-04-02T10:34:08.581Z,9.20
2018-04-02T10:36:36.240Z,9.10
2018-04-02T10:39:07.564Z,8.88
2018-04-02T10:41:35.192Z,9.45
2018-04-02T10:44:02.856Z,10.35
2018-04-02T10:46:30.487Z,12.15
2018-04-02T10:48:58.148Z,11.80
2018-04-02T10:51:25.784Z,12.68
2018-04-02T10:53:54.254Z,12.90
2018-04-02T10:56:22.674Z,13.95
2018-04-02T10:58:50.312Z,13.50
2018-04-02T11:01:17.969Z,14.55
2018-04-02T11:03:45.612Z,13.98
2018-04-02T11:06:14.048Z,14.95
2018-04-02T11:08:41.689Z,15.40
2018-04-02T11:11:09.363Z,15.50
2018-04-02T11:13:36.992Z,14.98
2018-04-02T11:16:04.626Z,14.93
2018-04-02T11:18:32.310Z,14.55
2018-04-02T11:21:00.001Z,13.88
2018-04-02T11:23:27.641Z,14.65
2018-04-02T11:25:55.303Z,14.48
2018-04-02T11:28:23.003Z,14.20
2018-04-02T11:30:50.635Z,15.07
2018-04-02T11:33:18.298Z,14.18
2018-04-02T11:35:45.962Z,14.98
2018-04-02T11:38:13.603Z,14.02
2018-04-02T11:40:41.241Z,14.80
2018-04-02T11:43:09.669Z,13.38
2018-04-02T11:45:37.312Z,13.45
2018-04-02T11:48:05.001Z,13.88
2018-04-02T11:50:32.653Z,13.20
2018-04-02T11:53:00.334Z,13.57
2018-04-02T11:55:27.986Z,14.45
2018-04-02T11:57:55.639Z,12.93
2018-04-02T12:00:23.318Z,12.20
2018-04-02T12:02:50.961Z,13.55
2018-04-02T12:05:19.157Z,12.70
2018-04-02T12:07:47.756Z,12.57
2018-04-02T12:10:16.157Z,13.10
2018-04-02T12:12:43.793Z,13.20
2018-04-02T12:15:12.220Z,11.48
2018-04-02T12:17:39.861Z,10.93
2018-04-02T12:20:07.610Z,10.40
2018-04-02T12:22:36.001Z,10.63
2018-04-02T12:25:03.676Z,10.35
2018-04-02T12:27:31.387Z,10.27
2018-04-02T12:29:59.029Z,11.65
2018-04-02T12:32:26.660Z,11.00
2018-04-02T12:34:54.325Z,10.70
2018-04-02T12:37:21.961Z,10.65
2018-04-02T12:39:49.623Z,10.73
2018-04-02T12:42:17.284Z,9.48
2018-04-02T12:44:44.948Z,11.18
2018-04-02T12:47:12.593Z,10.65
2018-04-02T12:49:40.261Z,11.18
2018-04-02T12:52:07.898Z,10.20
2018-04-02T12:54:36.301Z,9.70
2018-04-02T12:57:03.984Z,11.60
2018-04-02T12:59:31.621Z,9.93
2018-04-02T13:01:59.256Z,9.52
2018-04-02T13:04:27.737Z,10.55
2018-04-02T13:06:55.363Z,8.70
2018-04-02T13:09:23.040Z,8.57
2018-04-02T13:11:50.676Z,10.02
2018-04-02T13:14:18.309Z,9.10
2018-04-02T13:16:45.969Z,9.48
2018-04-02T13:19:13.646Z,8.80
2018-04-02T13:21:41.296Z,9.68
2018-04-02T13:24:08.931Z,9.77
2018-04-02T13:26:37.353Z,8.60
2018-04-02T13:29:04.993Z,10.27
2018-04-02T13:31:32.698Z,9.80
2018-04-02T13:34:00.345Z,8.90
2018-04-02T13:36:27.982Z,9.73
2018-04-02T13:38:55.633Z,9.73
2018-04-02T13:41:23.292Z,9.32
2018-04-02T13:43:50.972Z,10.02
2018-04-02T13:46:18.610Z,8.98
2018-04-02T13:48:46.292Z,9.30
2018-04-02T13:51:13.971Z,10.57
2018-04-02T13:53:41.610Z,9.68
2018-04-02T13:56:09.246Z,9.75
2018-04-02T13:58:36.904Z,10.25
2018-04-02T14:01:04.574Z,10.80
2018-04-02T14:03:32.304Z,10.43
2018-04-02T14:05:59.934Z,10.00
2018-04-02T14:08:27.576Z,9.52
2018-04-02T14:10:55.320Z,10.73
2018-04-02T14:13:22.974Z,8.95
2018-04-02T14:15:50.627Z,9.70
2018-04-02T14:18:18.353Z,9.43
2018-04-02T14:20:45.992Z,9.40
2018-04-02T14:23:13.628Z,9.35
2018-04-02T14:25:41.336Z,9.30
2018-04-02T14:28:08.972Z,9.65
2018-04-02T14:30:36.614Z,9.75
2018-04-02T14:33:04.317Z,8.57
2018-04-02T14:35:31.960Z,9.60
2018-04-02T14:37:59.600Z,10.00
2018-04-02T14:40:27.296Z,9.98
2018-04-02T14:42:54.962Z,9.65
2018-04-02T14:45:22.605Z,10.07
2018-04-02T14:47:51.074Z,10.30
2018-04-02T14:50:18.714Z,9.40
2018-04-02T14:52:46.351Z,9.00
2018-04-02T14:55:14.031Z,10.50
2018-04-02T14:57:41.670Z,9.35
2018-04-02T15:00:10.072Z,9.68
2018-04-02T15:02:37.756Z,9.15
2018-04-02T15:05:05.393Z,9.68
2018-04-02T15:07:33.039Z,8.38
2018-04-02T15:10:00.728Z,10.10
2018-04-02T15:12:28.364Z,9.13
2018-04-02T15:14:56.070Z,10.10
2018-04-02T15:17:23.755Z,8.63
2018-04-02T15:19:52.193Z,9.70
2018-04-02T15:22:20.601Z,9.75
2018-04-02T15:24:48.270Z,9.55
2018-04-02T15:27:16.725Z,10.27
2018-04-02T15:29:44.380Z,9.25
2018-04-02T15:32:12.016Z,8.68
2018-04-02T15:34:39.698Z,8.13
2018-04-02T15:37:07.386Z,9.25
2018-04-02T15:39:36.637Z,10.52
2018-04-02T15:42:04.290Z,10.13
2018-04-02T15:44:31.956Z,9.20
2018-04-02T15:46:59.606Z,10.00
2018-04-02T15:49:27.273Z,9.10
2018-04-02T15:51:54.920Z,8.55
2018-04-02T15:54:22.900Z,8.77
2018-04-02T15:56:50.604Z,8.00
2018-04-02T15:59:18.248Z,8.55
2018-04-02T16:01:46.727Z,8.10
2018-04-02T16:04:15.189Z,8.30
2018-04-02T16:06:42.820Z,8.43
2018-04-02T16:09:11.683Z,8.57
2018-04-02T16:11:39.822Z,7.95
2018-04-02T16:14:07.516Z,7.85
2018-04-02T16:16:35.181Z,8.10
2018-04-02T16:19:03.624Z,7.75
2018-04-02T16:21:31.272Z,7.60
2018-04-02T16:23:58.966Z,8.13
2018-04-02T16:26:27.345Z,8.68
2018-04-02T16:28:55.053Z,8.57
2018-04-02T16:31:22.734Z,7.20
2018-04-02T16:33:50.373Z,8.27
2018-04-02T16:36:18.012Z,8.38
2018-04-02T16:38:46.456Z,7.85
2018-04-02T16:41:14.862Z,8.52
2018-04-02T16:43:43.479Z,8.80
2018-04-02T16:46:11.157Z,8.10
2018-04-02T16:48:38.788Z,7.75
2018-04-02T16:51:06.721Z,10.45
2018-04-02T16:53:34.471Z,8.70
2018-04-02T16:56:02.151Z,8.60
2018-04-02T16:58:29.859Z,8.90
2018-04-02T17:00:57.489Z,8.75
2018-04-02T17:03:25.888Z,7.20
2018-04-02T17:05:53.577Z,8.15
2018-04-02T17:08:21.241Z,8.60
2018-04-02T17:10:48.922Z,8.50
2018-04-02T17:13:16.562Z,7.70
2018-04-02T17:15:44.197Z,7.85
2018-04-02T17:18:11.861Z,7.03
2018-04-02T17:20:39.492Z,7.47
2018-04-02T17:23:07.137Z,6.97
2018-04-02T17:25:34.808Z,6.72
2018-04-02T17:28:03.235Z,6.50
2018-04-02T17:30:31.207Z,6.35
2018-04-02T17:32:58.883Z,8.35
2018-04-02T17:35:26.516Z,8.60
2018-04-02T17:37:54.192Z,8.45
2018-04-02T17:40:21.863Z,9.10
2018-04-02T17:42:50.283Z,9.55
2018-04-02T17:45:18.741Z,10.25
2018-04-02T17:47:46.384Z,10.90
2018-04-02T17:50:14.016Z,9.60
2018-04-02T17:52:41.669Z,7.90
2018-04-02T17:55:09.314Z,7.70
2018-04-02T17:57:37.360Z,8.88
2018-04-02T18:00:06.461Z,9.90
2018-04-02T18:02:34.910Z,9.15
2018-04-02T18:05:02.549Z,9.00
2018-04-02T18:07:30.185Z,9.30
2018-04-02T18:09:57.865Z,19.40
2018-04-02T18:12:25.502Z,15.27
2018-04-02T18:14:53.142Z,17.75
2018-04-02T18:17:21.577Z,16.08
2018-04-02T18:19:49.281Z,15.38
2018-04-02T18:22:17.685Z,14.93
2018-04-02T18:24:45.320Z,13.10
2018-04-02T18:27:13.761Z,12.70
2018-04-02T18:29:41.400Z,11.60
2018-04-02T18:32:09.034Z,10.70
2018-04-02T18:34:36.688Z,11.40
2018-04-02T18:37:04.326Z,11.60
2018-04-02T18:39:32.000Z,11.35
2018-04-02T18:42:00.409Z,10.45
2018-04-02T18:44:28.044Z,10.52
2018-04-02T18:46:56.473Z,10.55
2018-04-02T18:49:24.147Z,10.40
2018-04-02T18:51:51.780Z,10.85
2018-04-02T18:54:19.454Z,12.10
2018-04-02T18:56:47.128Z,11.60
2018-04-02T18:59:14.756Z,11.27
2018-04-02T19:01:42.391Z,10.15
2018-04-02T19:04:10.044Z,10.65
2018-04-02T19:06:38.443Z,12.00
2018-04-02T19:09:06.083Z,11.70
2018-04-02T19:11:33.868Z,11.00
2018-04-02T19:14:01.496Z,9.55
2018-04-02T19:16:29.910Z,10.52
2018-04-02T19:18:57.564Z,9.85
2018-04-02T19:21:25.195Z,9.68
2018-04-02T19:23:53.632Z,10.30
2018-04-02T19:26:21.290Z,10.35
2018-04-02T19:28:48.926Z,11.38
2018-04-02T19:31:16.616Z,10.38
2018-04-02T19:33:44.252Z,10.32
2018-04-02T19:36:11.901Z,10.85
2018-04-02T19:38:39.557Z,10.45
2018-04-02T19:41:07.200Z,10.85
2018-04-02T19:43:35.645Z,11.00
2018-04-02T19:46:03.309Z,9.43
2018-04-02T19:48:30.956Z,10.98
2018-04-02T19:50:58.629Z,9.55
2018-04-02T19:53:27.773Z,10.32
2018-04-02T19:55:55.472Z,11.95
2018-04-02T19:58:23.149Z,10.35
2018-04-02T20:00:51.552Z,11.50
2018-04-02T20:03:19.952Z,14.00
2018-04-02T20:05:47.609Z,12.30
2018-04-02T20:08:15.281Z,11.70
2018-04-02T20:10:42.944Z,14.45
2018-04-02T20:13:10.629Z,12.37
2018-04-02T20:15:38.269Z,11.35
2018-04-02T20:18:05.904Z,11.52
2018-04-02T20:20:34.445Z,12.93
2018-04-02T20:23:02.113Z,12.65
2018-04-02T20:25:31.982Z,11.80
2018-04-02T20:28:03.107Z,11.77
2018-04-02T20:30:33.330Z,10.25
2018-04-02T20:33:01.139Z,12.25
2018-04-02T20:35:28.824Z,11.15
2018-04-02T20:37:56.470Z,10.65
2018-04-02T20:40:24.141Z,10.55
2018-04-02T20:42:51.820Z,10.60
2018-04-02T20:45:20.220Z,10.10
2018-04-02T20:47:47.855Z,10.32
2018-04-02T20:50:16.413Z,10.40
2018-04-02T20:52:44.053Z,10.73
2018-04-02T20:55:11.689Z,9.63
2018-04-02T20:57:39.341Z,10.07
2018-04-02T21:00:07.737Z,9.50
2018-04-02T21:02:35.376Z,11.88
2018-04-02T21:05:03.068Z,11.30
2018-04-02T21:07:30.709Z,10.75
2018-04-02T21:09:58.350Z,11.07
2018-04-02T21:12:26.032Z,10.77
2018-04-02T21:14:53.673Z,10.68
2018-04-02T21:17:21.375Z,12.82
2018-04-02T21:19:49.052Z,13.05
2018-04-02T21:22:16.697Z,13.70
2018-04-02T21:24:44.329Z,13.52
2018-04-02T21:27:11.996Z,12.20
2018-04-02T21:29:39.640Z,12.60
2018-04-02T21:32:07.342Z,11.43
2018-04-02T21:34:35.017Z,11.32
2018-04-02T21:37:02.653Z,10.30
2018-04-02T21:39:30.293Z,10.75
2018-04-02T21:41:57.969Z,10.50
2018-04-02T21:44:25.638Z,11.70
2018-04-02T21:46:53.277Z,9.05
2018-04-02T21:49:20.958Z,9.07
2018-04-02T21:51:48.605Z,10.35
2018-04-02T21:54:16.233Z,9.40
2018-04-02T21:56:44.681Z,9.68
2018-04-02T21:59:12.312Z,9.02
2018-04-02T22:01:39.943Z,8.93
2018-04-02T22:04:07.613Z,9.60
2018-04-02T22:06:47.050Z,9.07
2018-04-02T22:09:14.757Z,9.77
2018-04-02T22:11:42.388Z,10.05
2018-04-02T22:14:10.021Z,9.80
2018-04-02T22:16:37.707Z,9.65
2018-04-02T22:19:05.353Z,8.88
2018-04-02T22:21:32.991Z,9.23
2018-04-02T22:24:01.444Z,10.40
2018-04-02T22:26:29.080Z,11.20
2018-04-02T22:28:56.713Z,10.38
